sensor_id;sensor_type;location;lat;lon;timestamp;temperature;humidity
65239;SHT30;51827;51.186;6.926;2023-01-28T00:00:19;18.30;48.30
65239;SHT30;51827;51.186;6.926;2023-01-28T00:01:19;18.31;48.33
65239;SHT30;51827;51.186;6.926;2023-01-28T00:02:20;18.27;48.26
65239;SHT30;51827;51.186;6.926;2023-01-28T00:03:20;18.30;48.31
65239;SHT30;51827;51.186;6.926;2023-01-28T00:04:20;18.31;48.28
65239;SHT30;51827;51.186;6.926;2023-01-28T00:05:21;18.31;48.28
65239;SHT30;51827;51.186;6.926;2023-01-28T00:06:21;18.30;48.28
65239;SHT30;51827;51.186;6.926;2023-01-28T00:07:21;18.31;48.26
65239;SHT30;51827;51.186;6.926;2023-01-28T00:08:21;18.32;48.30
65239;SHT30;51827;51.186;6.926;2023-01-28T00:09:22;18.31;48.23
65239;SHT30;51827;51.186;6.926;2023-01-28T00:10:22;18.31;48.26
65239;SHT30;51827;51.186;6.926;2023-01-28T00:11:22;18.30;48.28
65239;SHT30;51827;51.186;6.926;2023-01-28T00:12:23;18.28;48.29
65239;SHT30;51827;51.186;6.926;2023-01-28T00:13:23;18.30;48.28
65239;SHT30;51827;51.186;6.926;2023-01-28T00:14:23;18.28;48.29
65239;SHT30;51827;51.186;6.926;2023-01-28T00:15:23;18.28;48.28
65239;SHT30;51827;51.186;6.926;2023-01-28T00:16:24;18.28;48.31
65239;SHT30;51827;51.186;6.926;2023-01-28T00:17:24;18.28;48.26
65239;SHT30;51827;51.186;6.926;2023-01-28T00:18:28;18.28;48.29
65239;SHT30;51827;51.186;6.926;2023-01-28T00:19:28;18.30;48.24
65239;SHT30;51827;51.186;6.926;2023-01-28T00:20:28;18.27;48.28
65239;SHT30;51827;51.186;6.926;2023-01-28T00:21:29;18.31;48.22
65239;SHT30;51827;51.186;6.926;2023-01-28T00:22:30;18.28;48.28
65239;SHT30;51827;51.186;6.926;2023-01-28T00:23:33;18.30;48.26
65239;SHT30;51827;51.186;6.926;2023-01-28T00:24:33;18.30;48.25
65239;SHT30;51827;51.186;6.926;2023-01-28T00:25:33;18.31;48.21
65239;SHT30;51827;51.186;6.926;2023-01-28T00:26:34;18.28;48.24
65239;SHT30;51827;51.186;6.926;2023-01-28T00:27:35;18.28;48.22
65239;SHT30;51827;51.186;6.926;2023-01-28T00:28:35;18.28;48.22
65239;SHT30;51827;51.186;6.926;2023-01-28T00:29:35;18.27;48.26
65239;SHT30;51827;51.186;6.926;2023-01-28T00:30:36;18.28;48.25
65239;SHT30;51827;51.186;6.926;2023-01-28T00:31:36;18.27;48.20
65239;SHT30;51827;51.186;6.926;2023-01-28T00:32:36;18.25;48.23
65239;SHT30;51827;51.186;6.926;2023-01-28T00:33:36;18.28;48.17
65239;SHT30;51827;51.186;6.926;2023-01-28T00:34:37;18.28;48.25
65239;SHT30;51827;51.186;6.926;2023-01-28T00:35:37;18.28;48.18
65239;SHT30;51827;51.186;6.926;2023-01-28T00:36:37;18.27;48.23
65239;SHT30;51827;51.186;6.926;2023-01-28T00:37:37;18.25;48.25
65239;SHT30;51827;51.186;6.926;2023-01-28T00:38:38;18.28;48.19
65239;SHT30;51827;51.186;6.926;2023-01-28T00:39:38;18.25;48.22
65239;SHT30;51827;51.186;6.926;2023-01-28T00:40:38;18.30;48.19
65239;SHT30;51827;51.186;6.926;2023-01-28T00:41:38;18.25;48.18
65239;SHT30;51827;51.186;6.926;2023-01-28T00:42:39;18.28;48.17
65239;SHT30;51827;51.186;6.926;2023-01-28T00:43:40;18.27;48.23
65239;SHT30;51827;51.186;6.926;2023-01-28T00:44:40;18.27;48.22
65239;SHT30;51827;51.186;6.926;2023-01-28T00:45:41;18.27;48.24
65239;SHT30;51827;51.186;6.926;2023-01-28T00:46:41;18.27;48.19
65239;SHT30;51827;51.186;6.926;2023-01-28T00:47:41;18.25;48.18
65239;SHT30;51827;51.186;6.926;2023-01-28T00:48:42;18.27;48.19
65239;SHT30;51827;51.186;6.926;2023-01-28T00:49:43;18.28;48.25
65239;SHT30;51827;51.186;6.926;2023-01-28T00:50:43;18.25;48.18
65239;SHT30;51827;51.186;6.926;2023-01-28T00:51:43;18.27;48.15
65239;SHT30;51827;51.186;6.926;2023-01-28T00:52:44;18.28;48.15
65239;SHT30;51827;51.186;6.926;2023-01-28T00:53:44;18.25;48.17
65239;SHT30;51827;51.186;6.926;2023-01-28T00:54:44;18.25;48.20
65239;SHT30;51827;51.186;6.926;2023-01-28T00:55:44;18.27;48.17
65239;SHT30;51827;51.186;6.926;2023-01-28T00:56:45;18.25;48.18
65239;SHT30;51827;51.186;6.926;2023-01-28T00:57:45;18.27;48.15
65239;SHT30;51827;51.186;6.926;2023-01-28T00:58:46;18.25;48.19
65239;SHT30;51827;51.186;6.926;2023-01-28T00:59:46;18.25;48.15
65239;SHT30;51827;51.186;6.926;2023-01-28T01:00:46;18.27;48.14
65239;SHT30;51827;51.186;6.926;2023-01-28T01:01:46;18.25;48.15
65239;SHT30;51827;51.186;6.926;2023-01-28T01:02:47;18.28;48.17
65239;SHT30;51827;51.186;6.926;2023-01-28T01:03:47;18.27;48.13
65239;SHT30;51827;51.186;6.926;2023-01-28T01:04:47;18.25;48.16
65239;SHT30;51827;51.186;6.926;2023-01-28T01:05:47;18.25;48.13
65239;SHT30;51827;51.186;6.926;2023-01-28T01:06:48;18.25;48.15
65239;SHT30;51827;51.186;6.926;2023-01-28T01:07:48;18.24;48.16
65239;SHT30;51827;51.186;6.926;2023-01-28T01:08:49;18.25;48.17
65239;SHT30;51827;51.186;6.926;2023-01-28T01:09:49;18.24;48.18
65239;SHT30;51827;51.186;6.926;2023-01-28T01:10:49;18.24;48.17
65239;SHT30;51827;51.186;6.926;2023-01-28T01:11:49;18.27;48.13
65239;SHT30;51827;51.186;6.926;2023-01-28T01:12:50;18.25;48.17
65239;SHT30;51827;51.186;6.926;2023-01-28T01:13:56;18.25;48.13
65239;SHT30;51827;51.186;6.926;2023-01-28T01:14:56;18.24;48.13
65239;SHT30;51827;51.186;6.926;2023-01-28T01:16:09;18.25;48.12
65239;SHT30;51827;51.186;6.926;2023-01-28T01:17:09;18.27;48.13
65239;SHT30;51827;51.186;6.926;2023-01-28T01:18:09;18.24;48.15
65239;SHT30;51827;51.186;6.926;2023-01-28T01:19:10;18.22;48.18
65239;SHT30;51827;51.186;6.926;2023-01-28T01:21:20;18.27;48.12
65239;SHT30;51827;51.186;6.926;2023-01-28T01:22:22;18.27;48.12
65239;SHT30;51827;51.186;6.926;2023-01-28T01:23:22;18.25;48.21
65239;SHT30;51827;51.186;6.926;2023-01-28T01:24:22;18.24;48.15
65239;SHT30;51827;51.186;6.926;2023-01-28T01:25:22;18.24;48.11
65239;SHT30;51827;51.186;6.926;2023-01-28T01:26:23;18.25;48.11
65239;SHT30;51827;51.186;6.926;2023-01-28T01:27:23;18.24;48.13
65239;SHT30;51827;51.186;6.926;2023-01-28T01:28:23;18.25;48.11
65239;SHT30;51827;51.186;6.926;2023-01-28T01:29:23;18.24;48.13
65239;SHT30;51827;51.186;6.926;2023-01-28T01:30:24;18.25;48.13
65239;SHT30;51827;51.186;6.926;2023-01-28T01:31:24;18.24;48.19
65239;SHT30;51827;51.186;6.926;2023-01-28T01:32:28;18.24;48.16
65239;SHT30;51827;51.186;6.926;2023-01-28T01:33:29;18.22;48.09
65239;SHT30;51827;51.186;6.926;2023-01-28T01:34:30;18.24;48.07
65239;SHT30;51827;51.186;6.926;2023-01-28T01:35:30;18.27;48.12
65239;SHT30;51827;51.186;6.926;2023-01-28T01:36:30;18.27;48.07
65239;SHT30;51827;51.186;6.926;2023-01-28T01:37:31;18.22;48.11
65239;SHT30;51827;51.186;6.926;2023-01-28T01:38:31;18.25;48.08
65239;SHT30;51827;51.186;6.926;2023-01-28T01:39:32;18.24;48.09
65239;SHT30;51827;51.186;6.926;2023-01-28T01:40:32;18.24;48.10
65239;SHT30;51827;51.186;6.926;2023-01-28T01:41:33;18.22;48.13
65239;SHT30;51827;51.186;6.926;2023-01-28T01:42:33;18.24;48.07
65239;SHT30;51827;51.186;6.926;2023-01-28T01:45:13;18.25;48.05
65239;SHT30;51827;51.186;6.926;2023-01-28T01:46:15;18.24;48.09
65239;SHT30;51827;51.186;6.926;2023-01-28T01:47:17;18.22;48.09
65239;SHT30;51827;51.186;6.926;2023-01-28T01:48:30;18.25;48.13
65239;SHT30;51827;51.186;6.926;2023-01-28T01:49:31;18.22;48.11
65239;SHT30;51827;51.186;6.926;2023-01-28T01:50:35;18.27;48.06
65239;SHT30;51827;51.186;6.926;2023-01-28T01:51:36;18.27;48.04
65239;SHT30;51827;51.186;6.926;2023-01-28T01:52:37;18.25;48.03
65239;SHT30;51827;51.186;6.926;2023-01-28T01:53:45;18.22;47.99
65239;SHT30;51827;51.186;6.926;2023-01-28T01:54:51;18.25;48.02
65239;SHT30;51827;51.186;6.926;2023-01-28T01:55:55;18.24;48.07
65239;SHT30;51827;51.186;6.926;2023-01-28T01:56:56;18.22;48.07
65239;SHT30;51827;51.186;6.926;2023-01-28T01:58:00;18.20;48.03
65239;SHT30;51827;51.186;6.926;2023-01-28T01:59:02;18.22;48.02
65239;SHT30;51827;51.186;6.926;2023-01-28T02:00:06;18.22;48.02
65239;SHT30;51827;51.186;6.926;2023-01-28T02:01:06;18.24;48.01
65239;SHT30;51827;51.186;6.926;2023-01-28T02:02:08;18.21;48.04
65239;SHT30;51827;51.186;6.926;2023-01-28T02:03:10;18.20;48.08
65239;SHT30;51827;51.186;6.926;2023-01-28T02:04:18;18.21;48.08
65239;SHT30;51827;51.186;6.926;2023-01-28T02:05:21;18.22;48.04
65239;SHT30;51827;51.186;6.926;2023-01-28T02:06:22;18.24;48.02
65239;SHT30;51827;51.186;6.926;2023-01-28T02:07:23;18.22;48.04
65239;SHT30;51827;51.186;6.926;2023-01-28T02:08:23;18.24;48.03
65239;SHT30;51827;51.186;6.926;2023-01-28T02:09:26;18.24;48.02
65239;SHT30;51827;51.186;6.926;2023-01-28T02:10:26;18.24;47.97
65239;SHT30;51827;51.186;6.926;2023-01-28T02:11:29;18.22;47.97
65239;SHT30;51827;51.186;6.926;2023-01-28T02:12:36;18.24;48.03
65239;SHT30;51827;51.186;6.926;2023-01-28T02:13:43;18.22;48.03
65239;SHT30;51827;51.186;6.926;2023-01-28T02:14:49;18.20;48.00
65239;SHT30;51827;51.186;6.926;2023-01-28T02:15:50;18.21;48.02
65239;SHT30;51827;51.186;6.926;2023-01-28T02:16:51;18.20;48.03
65239;SHT30;51827;51.186;6.926;2023-01-28T02:17:52;18.21;48.04
65239;SHT30;51827;51.186;6.926;2023-01-28T02:18:52;18.22;48.04
65239;SHT30;51827;51.186;6.926;2023-01-28T02:19:56;18.22;48.04
65239;SHT30;51827;51.186;6.926;2023-01-28T02:25:53;18.22;47.98
65239;SHT30;51827;51.186;6.926;2023-01-28T02:30:27;18.24;47.99
65239;SHT30;51827;51.186;6.926;2023-01-28T02:32:45;18.22;47.91
65239;SHT30;51827;51.186;6.926;2023-01-28T02:34:10;18.22;47.96
65239;SHT30;51827;51.186;6.926;2023-01-28T02:36:57;18.21;47.96
65239;SHT30;51827;51.186;6.926;2023-01-28T02:38:25;18.20;48.02
65239;SHT30;51827;51.186;6.926;2023-01-28T02:39:30;18.20;48.00
65239;SHT30;51827;51.186;6.926;2023-01-28T02:40:35;18.17;48.00
65239;SHT30;51827;51.186;6.926;2023-01-28T02:41:49;18.20;47.96
65239;SHT30;51827;51.186;6.926;2023-01-28T02:42:51;18.21;47.94
65239;SHT30;51827;51.186;6.926;2023-01-28T02:43:51;18.24;47.98
65239;SHT30;51827;51.186;6.926;2023-01-28T02:44:52;18.18;47.97
65239;SHT30;51827;51.186;6.926;2023-01-28T02:45:52;18.21;47.97
65239;SHT30;51827;51.186;6.926;2023-01-28T02:46:52;18.21;47.94
65239;SHT30;51827;51.186;6.926;2023-01-28T02:47:53;18.20;47.98
65239;SHT30;51827;51.186;6.926;2023-01-28T02:48:53;18.21;47.97
65239;SHT30;51827;51.186;6.926;2023-01-28T02:49:56;18.22;48.00
65239;SHT30;51827;51.186;6.926;2023-01-28T02:51:06;18.18;48.01
65239;SHT30;51827;51.186;6.926;2023-01-28T02:53:51;18.20;48.02
65239;SHT30;51827;51.186;6.926;2023-01-28T02:55:01;18.20;47.99
65239;SHT30;51827;51.186;6.926;2023-01-28T03:01:09;18.17;47.99
65239;SHT30;51827;51.186;6.926;2023-01-28T03:04:59;18.21;47.95
65239;SHT30;51827;51.186;6.926;2023-01-28T03:06:06;18.21;47.98
65239;SHT30;51827;51.186;6.926;2023-01-28T03:07:09;18.22;47.92
65239;SHT30;51827;51.186;6.926;2023-01-28T03:08:10;18.24;47.96
65239;SHT30;51827;51.186;6.926;2023-01-28T03:09:11;18.20;47.94
65239;SHT30;51827;51.186;6.926;2023-01-28T03:10:16;18.18;47.95
65239;SHT30;51827;51.186;6.926;2023-01-28T03:11:17;18.22;47.91
65239;SHT30;51827;51.186;6.926;2023-01-28T03:12:21;18.18;47.95
65239;SHT30;51827;51.186;6.926;2023-01-28T03:13:23;18.20;47.98
65239;SHT30;51827;51.186;6.926;2023-01-28T03:14:24;18.20;47.94
65239;SHT30;51827;51.186;6.926;2023-01-28T03:15:30;18.18;47.98
65239;SHT30;51827;51.186;6.926;2023-01-28T03:16:31;18.21;47.93
65239;SHT30;51827;51.186;6.926;2023-01-28T03:17:35;18.20;47.96
65239;SHT30;51827;51.186;6.926;2023-01-28T03:18:44;18.20;47.92
65239;SHT30;51827;51.186;6.926;2023-01-28T03:19:46;18.21;47.94
65239;SHT30;51827;51.186;6.926;2023-01-28T03:21:04;18.20;47.95
65239;SHT30;51827;51.186;6.926;2023-01-28T03:22:05;18.18;47.95
65239;SHT30;51827;51.186;6.926;2023-01-28T03:23:09;18.18;47.92
65239;SHT30;51827;51.186;6.926;2023-01-28T03:24:16;18.20;47.99
65239;SHT30;51827;51.186;6.926;2023-01-28T03:25:21;18.18;47.92
65239;SHT30;51827;51.186;6.926;2023-01-28T03:26:26;18.20;47.89
65239;SHT30;51827;51.186;6.926;2023-01-28T03:27:55;18.18;47.93
65239;SHT30;51827;51.186;6.926;2023-01-28T03:29:04;18.15;47.95
65239;SHT30;51827;51.186;6.926;2023-01-28T03:30:27;18.18;47.95
65239;SHT30;51827;51.186;6.926;2023-01-28T03:31:29;18.18;48.00
65239;SHT30;51827;51.186;6.926;2023-01-28T03:32:31;18.18;47.98
65239;SHT30;51827;51.186;6.926;2023-01-28T03:33:33;18.17;47.98
65239;SHT30;51827;51.186;6.926;2023-01-28T03:34:35;18.17;47.95
65239;SHT30;51827;51.186;6.926;2023-01-28T03:35:37;18.18;47.93
65239;SHT30;51827;51.186;6.926;2023-01-28T03:36:37;18.17;47.92
65239;SHT30;51827;51.186;6.926;2023-01-28T03:37:38;18.15;47.91
65239;SHT30;51827;51.186;6.926;2023-01-28T03:38:40;18.15;47.96
65239;SHT30;51827;51.186;6.926;2023-01-28T03:39:41;18.18;47.98
65239;SHT30;51827;51.186;6.926;2023-01-28T03:40:58;18.17;47.95
65239;SHT30;51827;51.186;6.926;2023-01-28T03:42:06;18.17;47.97
65239;SHT30;51827;51.186;6.926;2023-01-28T03:43:06;18.17;47.88
65239;SHT30;51827;51.186;6.926;2023-01-28T03:44:06;18.18;47.92
65239;SHT30;51827;51.186;6.926;2023-01-28T03:45:07;18.20;47.91
65239;SHT30;51827;51.186;6.926;2023-01-28T03:46:08;18.18;47.90
65239;SHT30;51827;51.186;6.926;2023-01-28T03:47:08;18.17;47.91
65239;SHT30;51827;51.186;6.926;2023-01-28T03:48:09;18.15;47.92
65239;SHT30;51827;51.186;6.926;2023-01-28T03:49:09;18.18;47.93
65239;SHT30;51827;51.186;6.926;2023-01-28T03:50:09;18.18;47.91
65239;SHT30;51827;51.186;6.926;2023-01-28T03:51:10;18.20;47.89
65239;SHT30;51827;51.186;6.926;2023-01-28T03:52:11;18.21;47.93
65239;SHT30;51827;51.186;6.926;2023-01-28T03:53:12;18.20;47.86
65239;SHT30;51827;51.186;6.926;2023-01-28T03:54:12;18.20;47.85
65239;SHT30;51827;51.186;6.926;2023-01-28T03:55:12;18.20;47.82
65239;SHT30;51827;51.186;6.926;2023-01-28T03:56:12;18.18;47.86
65239;SHT30;51827;51.186;6.926;2023-01-28T03:57:17;18.17;47.90
65239;SHT30;51827;51.186;6.926;2023-01-28T03:58:18;18.18;47.86
65239;SHT30;51827;51.186;6.926;2023-01-28T03:59:19;18.17;47.87
65239;SHT30;51827;51.186;6.926;2023-01-28T04:00:19;18.17;47.87
65239;SHT30;51827;51.186;6.926;2023-01-28T04:01:20;18.20;47.86
65239;SHT30;51827;51.186;6.926;2023-01-28T04:02:21;18.18;47.85
65239;SHT30;51827;51.186;6.926;2023-01-28T04:03:22;18.17;47.88
65239;SHT30;51827;51.186;6.926;2023-01-28T04:04:22;18.18;47.89
65239;SHT30;51827;51.186;6.926;2023-01-28T04:05:22;18.20;47.88
65239;SHT30;51827;51.186;6.926;2023-01-28T04:06:23;18.18;47.88
65239;SHT30;51827;51.186;6.926;2023-01-28T04:07:23;18.17;47.88
65239;SHT30;51827;51.186;6.926;2023-01-28T04:08:23;18.21;47.87
65239;SHT30;51827;51.186;6.926;2023-01-28T04:09:24;18.18;47.83
65239;SHT30;51827;51.186;6.926;2023-01-28T04:10:24;18.18;47.82
65239;SHT30;51827;51.186;6.926;2023-01-28T04:11:25;18.18;47.86
65239;SHT30;51827;51.186;6.926;2023-01-28T04:12:25;18.17;47.88
65239;SHT30;51827;51.186;6.926;2023-01-28T04:13:26;18.18;47.86
65239;SHT30;51827;51.186;6.926;2023-01-28T04:14:26;18.20;47.87
65239;SHT30;51827;51.186;6.926;2023-01-28T04:15:26;18.20;47.87
65239;SHT30;51827;51.186;6.926;2023-01-28T04:16:27;18.17;47.84
65239;SHT30;51827;51.186;6.926;2023-01-28T04:17:27;18.17;47.86
65239;SHT30;51827;51.186;6.926;2023-01-28T04:18:27;18.17;47.88
65239;SHT30;51827;51.186;6.926;2023-01-28T04:19:27;18.15;47.84
65239;SHT30;51827;51.186;6.926;2023-01-28T04:20:28;18.14;47.87
65239;SHT30;51827;51.186;6.926;2023-01-28T04:21:28;18.17;47.81
65239;SHT30;51827;51.186;6.926;2023-01-28T04:22:29;18.17;47.80
65239;SHT30;51827;51.186;6.926;2023-01-28T04:23:29;18.18;47.81
65239;SHT30;51827;51.186;6.926;2023-01-28T04:24:30;18.18;47.78
65239;SHT30;51827;51.186;6.926;2023-01-28T04:25:31;18.15;47.77
65239;SHT30;51827;51.186;6.926;2023-01-28T04:26:31;18.17;47.76
65239;SHT30;51827;51.186;6.926;2023-01-28T04:27:31;18.17;47.76
65239;SHT30;51827;51.186;6.926;2023-01-28T04:28:32;18.17;47.77
65239;SHT30;51827;51.186;6.926;2023-01-28T04:29:32;18.15;47.75
65239;SHT30;51827;51.186;6.926;2023-01-28T04:30:32;18.18;47.76
65239;SHT30;51827;51.186;6.926;2023-01-28T04:31:33;18.18;47.77
65239;SHT30;51827;51.186;6.926;2023-01-28T04:32:33;18.18;47.74
65239;SHT30;51827;51.186;6.926;2023-01-28T04:33:33;18.18;47.74
65239;SHT30;51827;51.186;6.926;2023-01-28T04:34:34;18.17;47.81
65239;SHT30;51827;51.186;6.926;2023-01-28T04:35:34;18.17;47.78
65239;SHT30;51827;51.186;6.926;2023-01-28T04:36:34;18.20;47.77
65239;SHT30;51827;51.186;6.926;2023-01-28T04:37:35;18.17;47.75
65239;SHT30;51827;51.186;6.926;2023-01-28T04:38:35;18.18;47.71
65239;SHT30;51827;51.186;6.926;2023-01-28T04:39:35;18.18;47.77
65239;SHT30;51827;51.186;6.926;2023-01-28T04:40:35;18.18;47.73
65239;SHT30;51827;51.186;6.926;2023-01-28T04:41:36;18.18;47.75
65239;SHT30;51827;51.186;6.926;2023-01-28T04:42:36;18.17;47.75
65239;SHT30;51827;51.186;6.926;2023-01-28T04:43:36;18.18;47.73
65239;SHT30;51827;51.186;6.926;2023-01-28T04:44:37;18.17;47.77
65239;SHT30;51827;51.186;6.926;2023-01-28T04:45:37;18.18;47.74
65239;SHT30;51827;51.186;6.926;2023-01-28T04:46:37;18.18;47.73
65239;SHT30;51827;51.186;6.926;2023-01-28T04:47:37;18.15;47.77
65239;SHT30;51827;51.186;6.926;2023-01-28T04:48:38;18.17;47.76
65239;SHT30;51827;51.186;6.926;2023-01-28T04:49:38;18.18;47.76
65239;SHT30;51827;51.186;6.926;2023-01-28T04:50:38;18.15;47.81
65239;SHT30;51827;51.186;6.926;2023-01-28T04:51:38;18.17;47.73
65239;SHT30;51827;51.186;6.926;2023-01-28T04:52:38;18.18;47.71
65239;SHT30;51827;51.186;6.926;2023-01-28T04:53:39;18.17;47.77
65239;SHT30;51827;51.186;6.926;2023-01-28T04:54:40;18.20;47.72
65239;SHT30;51827;51.186;6.926;2023-01-28T04:55:40;18.18;47.71
65239;SHT30;51827;51.186;6.926;2023-01-28T04:56:40;18.15;47.71
65239;SHT30;51827;51.186;6.926;2023-01-28T04:57:40;18.20;47.70
65239;SHT30;51827;51.186;6.926;2023-01-28T04:58:41;18.17;47.69
65239;SHT30;51827;51.186;6.926;2023-01-28T04:59:41;18.15;47.72
65239;SHT30;51827;51.186;6.926;2023-01-28T05:00:41;18.17;47.75
65239;SHT30;51827;51.186;6.926;2023-01-28T05:01:42;18.14;47.75
65239;SHT30;51827;51.186;6.926;2023-01-28T05:02:42;18.17;47.70
65239;SHT30;51827;51.186;6.926;2023-01-28T05:03:42;18.17;47.71
65239;SHT30;51827;51.186;6.926;2023-01-28T05:04:42;18.17;47.70
65239;SHT30;51827;51.186;6.926;2023-01-28T05:05:43;18.17;47.72
65239;SHT30;51827;51.186;6.926;2023-01-28T05:06:43;18.17;47.71
65239;SHT30;51827;51.186;6.926;2023-01-28T05:07:49;18.17;47.70
65239;SHT30;51827;51.186;6.926;2023-01-28T05:08:50;18.17;47.69
65239;SHT30;51827;51.186;6.926;2023-01-28T05:09:50;18.18;47.66
65239;SHT30;51827;51.186;6.926;2023-01-28T05:10:50;18.15;47.70
65239;SHT30;51827;51.186;6.926;2023-01-28T05:11:50;18.18;47.73
65239;SHT30;51827;51.186;6.926;2023-01-28T05:12:51;18.20;47.69
65239;SHT30;51827;51.186;6.926;2023-01-28T05:13:53;18.17;47.73
65239;SHT30;51827;51.186;6.926;2023-01-28T05:14:53;18.17;47.70
65239;SHT30;51827;51.186;6.926;2023-01-28T05:15:53;18.20;47.65
65239;SHT30;51827;51.186;6.926;2023-01-28T05:16:54;18.17;47.74
65239;SHT30;51827;51.186;6.926;2023-01-28T05:17:54;18.17;47.69
65239;SHT30;51827;51.186;6.926;2023-01-28T05:18:54;18.18;47.68
65239;SHT30;51827;51.186;6.926;2023-01-28T05:19:55;18.20;47.67
65239;SHT30;51827;51.186;6.926;2023-01-28T05:20:55;18.17;47.70
65239;SHT30;51827;51.186;6.926;2023-01-28T05:21:55;18.18;47.70
65239;SHT30;51827;51.186;6.926;2023-01-28T05:22:55;18.17;47.69
65239;SHT30;51827;51.186;6.926;2023-01-28T05:23:56;18.15;47.75
65239;SHT30;51827;51.186;6.926;2023-01-28T05:24:56;18.17;47.71
65239;SHT30;51827;51.186;6.926;2023-01-28T05:25:57;18.17;47.70
65239;SHT30;51827;51.186;6.926;2023-01-28T05:26:57;18.21;47.67
65239;SHT30;51827;51.186;6.926;2023-01-28T05:27:57;18.18;47.70
65239;SHT30;51827;51.186;6.926;2023-01-28T05:28:57;18.20;47.68
65239;SHT30;51827;51.186;6.926;2023-01-28T05:29:58;18.17;47.69
65239;SHT30;51827;51.186;6.926;2023-01-28T05:31:03;18.20;47.71
65239;SHT30;51827;51.186;6.926;2023-01-28T05:32:04;18.18;47.71
65239;SHT30;51827;51.186;6.926;2023-01-28T05:33:04;18.15;47.73
65239;SHT30;51827;51.186;6.926;2023-01-28T05:34:04;18.18;47.73
65239;SHT30;51827;51.186;6.926;2023-01-28T05:35:05;18.18;47.71
65239;SHT30;51827;51.186;6.926;2023-01-28T05:36:05;18.18;47.69
65239;SHT30;51827;51.186;6.926;2023-01-28T05:37:06;18.21;47.68
65239;SHT30;51827;51.186;6.926;2023-01-28T05:38:06;18.20;47.67
65239;SHT30;51827;51.186;6.926;2023-01-28T05:39:06;18.18;47.66
65239;SHT30;51827;51.186;6.926;2023-01-28T05:40:07;18.17;47.70
65239;SHT30;51827;51.186;6.926;2023-01-28T05:41:07;18.17;47.74
65239;SHT30;51827;51.186;6.926;2023-01-28T05:42:08;18.18;47.71
65239;SHT30;51827;51.186;6.926;2023-01-28T05:43:08;18.18;47.75
65239;SHT30;51827;51.186;6.926;2023-01-28T05:44:08;18.18;47.71
65239;SHT30;51827;51.186;6.926;2023-01-28T05:45:09;18.14;47.75
65239;SHT30;51827;51.186;6.926;2023-01-28T05:46:09;18.17;47.73
65239;SHT30;51827;51.186;6.926;2023-01-28T05:47:09;18.17;47.71
65239;SHT30;51827;51.186;6.926;2023-01-28T05:48:09;18.17;47.70
65239;SHT30;51827;51.186;6.926;2023-01-28T05:49:10;18.20;47.70
65239;SHT30;51827;51.186;6.926;2023-01-28T05:50:12;18.17;47.71
65239;SHT30;51827;51.186;6.926;2023-01-28T05:51:12;18.20;47.69
65239;SHT30;51827;51.186;6.926;2023-01-28T05:52:12;18.18;47.70
65239;SHT30;51827;51.186;6.926;2023-01-28T05:53:13;18.15;47.68
65239;SHT30;51827;51.186;6.926;2023-01-28T05:54:13;18.18;47.67
65239;SHT30;51827;51.186;6.926;2023-01-28T05:55:13;18.21;47.67
65239;SHT30;51827;51.186;6.926;2023-01-28T05:56:14;18.15;47.75
65239;SHT30;51827;51.186;6.926;2023-01-28T05:57:14;18.17;47.73
65239;SHT30;51827;51.186;6.926;2023-01-28T05:58:14;18.17;47.76
65239;SHT30;51827;51.186;6.926;2023-01-28T05:59:15;18.20;47.70
65239;SHT30;51827;51.186;6.926;2023-01-28T06:00:15;18.20;47.72
65239;SHT30;51827;51.186;6.926;2023-01-28T06:01:16;18.20;47.66
65239;SHT30;51827;51.186;6.926;2023-01-28T06:02:16;18.21;47.66
65239;SHT30;51827;51.186;6.926;2023-01-28T06:03:16;18.20;47.68
65239;SHT30;51827;51.186;6.926;2023-01-28T06:04:17;18.17;47.65
65239;SHT30;51827;51.186;6.926;2023-01-28T06:05:17;18.18;47.70
65239;SHT30;51827;51.186;6.926;2023-01-28T06:06:17;18.18;47.69
65239;SHT30;51827;51.186;6.926;2023-01-28T06:07:18;18.15;47.64
65239;SHT30;51827;51.186;6.926;2023-01-28T06:08:18;18.18;47.66
65239;SHT30;51827;51.186;6.926;2023-01-28T06:09:18;18.20;47.68
65239;SHT30;51827;51.186;6.926;2023-01-28T06:10:18;18.15;47.68
65239;SHT30;51827;51.186;6.926;2023-01-28T06:11:19;18.18;47.69
65239;SHT30;51827;51.186;6.926;2023-01-28T06:12:19;18.15;47.65
65239;SHT30;51827;51.186;6.926;2023-01-28T06:13:19;18.17;47.69
65239;SHT30;51827;51.186;6.926;2023-01-28T06:14:20;18.17;47.70
65239;SHT30;51827;51.186;6.926;2023-01-28T06:15:20;18.18;47.65
65239;SHT30;51827;51.186;6.926;2023-01-28T06:16:21;18.17;47.72
65239;SHT30;51827;51.186;6.926;2023-01-28T06:17:21;18.18;47.68
65239;SHT30;51827;51.186;6.926;2023-01-28T06:18:21;18.18;47.65
65239;SHT30;51827;51.186;6.926;2023-01-28T06:19:21;18.20;47.67
65239;SHT30;51827;51.186;6.926;2023-01-28T06:20:22;18.17;47.68
65239;SHT30;51827;51.186;6.926;2023-01-28T06:21:22;18.20;47.67
65239;SHT30;51827;51.186;6.926;2023-01-28T06:22:22;18.20;47.64
65239;SHT30;51827;51.186;6.926;2023-01-28T06:23:22;18.20;47.61
65239;SHT30;51827;51.186;6.926;2023-01-28T06:24:23;18.22;47.64
65239;SHT30;51827;51.186;6.926;2023-01-28T06:25:23;18.18;47.55
65239;SHT30;51827;51.186;6.926;2023-01-28T06:26:23;18.20;47.62
65239;SHT30;51827;51.186;6.926;2023-01-28T06:27:24;18.18;47.64
65239;SHT30;51827;51.186;6.926;2023-01-28T06:28:24;18.18;47.66
65239;SHT30;51827;51.186;6.926;2023-01-28T06:29:24;18.20;47.57
65239;SHT30;51827;51.186;6.926;2023-01-28T06:30:24;18.18;47.59
65239;SHT30;51827;51.186;6.926;2023-01-28T06:31:25;18.18;47.61
65239;SHT30;51827;51.186;6.926;2023-01-28T06:32:25;18.21;47.61
65239;SHT30;51827;51.186;6.926;2023-01-28T06:33:25;18.18;47.59
65239;SHT30;51827;51.186;6.926;2023-01-28T06:34:26;18.17;47.65
65239;SHT30;51827;51.186;6.926;2023-01-28T06:35:26;18.17;47.68
65239;SHT30;51827;51.186;6.926;2023-01-28T06:36:26;18.17;47.64
65239;SHT30;51827;51.186;6.926;2023-01-28T06:37:26;18.15;47.65
65239;SHT30;51827;51.186;6.926;2023-01-28T06:38:27;18.15;47.69
65239;SHT30;51827;51.186;6.926;2023-01-28T06:39:27;18.15;47.66
65239;SHT30;51827;51.186;6.926;2023-01-28T06:40:27;18.18;47.65
65239;SHT30;51827;51.186;6.926;2023-01-28T06:41:27;18.18;47.68
65239;SHT30;51827;51.186;6.926;2023-01-28T06:42:28;18.18;47.64
65239;SHT30;51827;51.186;6.926;2023-01-28T06:43:28;18.20;47.65
65239;SHT30;51827;51.186;6.926;2023-01-28T06:44:28;18.21;47.66
65239;SHT30;51827;51.186;6.926;2023-01-28T06:45:28;18.21;47.65
65239;SHT30;51827;51.186;6.926;2023-01-28T06:46:29;18.18;47.65
65239;SHT30;51827;51.186;6.926;2023-01-28T06:47:29;18.21;47.59
65239;SHT30;51827;51.186;6.926;2023-01-28T06:48:29;18.20;47.57
65239;SHT30;51827;51.186;6.926;2023-01-28T06:49:29;18.18;47.60
65239;SHT30;51827;51.186;6.926;2023-01-28T06:50:29;18.18;47.64
65239;SHT30;51827;51.186;6.926;2023-01-28T06:51:30;18.20;47.61